createdAt,value
2018-04-08T00:01:50.800Z,57.36
2018-04-08T00:04:18.432Z,57.42
2018-04-08T00:06:46.032Z,57.44
2018-04-08T00:09:13.689Z,57.40
2018-04-08T00:11:41.283Z,57.75
2018-04-08T00:14:08.912Z,57.72
2018-04-08T00:16:36.520Z,57.78
2018-04-08T00:19:04.118Z,57.72
2018-04-08T00:21:31.737Z,57.99
2018-04-08T00:23:59.350Z,58.05
2018-04-08T00:26:26.968Z,57.98
2018-04-08T00:28:54.561Z,58.06
2018-04-08T00:31:22.206Z,57.67
2018-04-08T00:33:49.823Z,57.78
2018-04-08T00:36:17.411Z,57.91
2018-04-08T00:38:45.020Z,58.28
2018-04-08T00:41:12.624Z,58.66
2018-04-08T00:43:40.249Z,58.30
2018-04-08T00:46:07.841Z,58.57
2018-04-08T00:48:35.486Z,58.40
2018-04-08T00:51:03.090Z,58.50
2018-04-08T00:53:30.687Z,58.62
2018-04-08T00:55:58.314Z,58.67
2018-04-08T00:58:26.420Z,59.10
2018-04-08T01:00:55.726Z,59.20
2018-04-08T01:03:23.322Z,59.32
2018-04-08T01:05:51.105Z,59.38
2018-04-08T01:08:18.725Z,59.36
2018-04-08T01:10:46.320Z,59.51
2018-04-08T01:13:14.164Z,59.43
2018-04-08T01:15:41.759Z,59.68
2018-04-08T01:18:09.367Z,59.90
2018-04-08T01:20:36.999Z,60.80
2018-04-08T01:23:04.617Z,61.63
2018-04-08T01:25:32.249Z,62.39
2018-04-08T01:27:59.900Z,63.30
2018-04-08T01:30:27.528Z,63.44
2018-04-08T01:32:55.124Z,63.19
2018-04-08T01:35:23.130Z,63.13
2018-04-08T01:37:50.734Z,63.62
2018-04-08T01:40:18.337Z,63.11
2018-04-08T01:42:45.976Z,62.94
2018-04-08T01:45:13.573Z,63.09
2018-04-08T01:47:41.199Z,63.12
2018-04-08T01:50:08.788Z,63.23
2018-04-08T01:52:36.672Z,63.69
2018-04-08T01:55:04.263Z,63.61
2018-04-08T01:57:31.852Z,63.62
2018-04-08T01:59:59.474Z,63.73
2018-04-08T02:02:27.073Z,63.69
2018-04-08T02:04:54.701Z,63.75
2018-04-08T02:07:22.304Z,64.02
2018-04-08T02:09:50.300Z,64.18
2018-04-08T02:12:17.894Z,64.08
2018-04-08T02:14:45.489Z,63.85
2018-04-08T02:17:13.130Z,63.73
2018-04-08T02:19:40.728Z,63.71
2018-04-08T02:22:08.340Z,63.92
2018-04-08T02:24:35.924Z,63.72
2018-04-08T02:27:03.726Z,63.78
2018-04-08T02:29:31.321Z,63.50
2018-04-08T02:31:58.933Z,63.51
2018-04-08T02:34:26.571Z,63.72
2018-04-08T02:36:54.172Z,63.57
2018-04-08T02:39:21.805Z,63.97
2018-04-08T02:41:49.507Z,64.38
2018-04-08T02:44:17.129Z,64.61
2018-04-08T02:46:44.734Z,64.77
2018-04-08T02:49:12.335Z,64.62
2018-04-08T02:51:39.950Z,64.79
2018-04-08T02:54:07.558Z,64.56
2018-04-08T02:56:36.100Z,64.88
2018-04-08T02:59:03.730Z,65.06
2018-04-08T03:01:31.513Z,64.96
2018-04-08T03:03:59.105Z,65.19
2018-04-08T03:06:26.723Z,65.37
2018-04-08T03:08:54.335Z,65.35
2018-04-08T03:11:21.926Z,65.43
2018-04-08T03:13:49.548Z,65.39
2018-04-08T03:16:17.133Z,65.53
2018-04-08T03:18:45.059Z,65.58
2018-04-08T03:21:12.652Z,65.31
2018-04-08T03:23:40.240Z,65.20
2018-04-08T03:26:07.854Z,65.09
2018-04-08T03:28:35.443Z,64.92
2018-04-08T03:31:03.054Z,64.82
2018-04-08T03:33:30.644Z,64.77
2018-04-08T03:35:58.489Z,64.78
2018-04-08T03:38:26.086Z,64.73
2018-04-08T03:40:53.673Z,65.21
2018-04-08T03:43:21.298Z,65.88
2018-04-08T03:45:48.888Z,65.73
2018-04-08T03:48:16.496Z,66.16
2018-04-08T03:50:44.087Z,65.50
2018-04-08T03:53:11.710Z,65.68
2018-04-08T03:55:39.295Z,65.81
2018-04-08T03:58:06.881Z,65.63
2018-04-08T04:00:34.494Z,65.61
2018-04-08T04:03:02.132Z,65.34
2018-04-08T04:05:29.723Z,65.13
2018-04-08T04:07:57.320Z,65.03
2018-04-08T04:10:25.146Z,64.80
2018-04-08T04:12:52.743Z,64.72
2018-04-08T04:15:20.336Z,64.57
2018-04-08T04:17:47.947Z,64.81
2018-04-08T04:20:27.350Z,64.97
2018-04-08T04:23:06.620Z,64.67
2018-04-08T04:28:40.525Z,65.05
2018-04-08T04:31:08.124Z,65.07
2018-04-08T04:33:35.732Z,65.00
2018-04-08T04:36:03.315Z,65.21
2018-04-08T04:38:31.087Z,65.37
2018-04-08T04:40:58.688Z,65.78
2018-04-08T04:43:26.284Z,66.33
2018-04-08T04:45:53.900Z,66.84
2018-04-08T04:48:21.505Z,66.84
2018-04-08T04:50:49.115Z,66.56
2018-04-08T04:53:16.719Z,66.40
2018-04-08T04:55:44.337Z,66.81
2018-04-08T04:58:11.931Z,66.96
2018-04-08T05:00:39.832Z,66.59
2018-04-08T05:03:07.424Z,66.80
2018-04-08T05:05:35.021Z,66.84
2018-04-08T05:08:02.649Z,66.99
2018-04-08T05:10:30.233Z,67.35
2018-04-08T05:12:57.895Z,67.49
2018-04-08T05:15:25.610Z,67.23
2018-04-08T05:17:53.701Z,66.95
2018-04-08T05:20:21.304Z,66.82
2018-04-08T05:22:48.901Z,66.55
2018-04-08T05:25:16.517Z,66.56
2018-04-08T05:27:44.110Z,66.16
2018-04-08T05:30:11.724Z,66.09
2018-04-08T05:32:39.311Z,65.98
2018-04-08T05:35:06.947Z,66.00
2018-04-08T05:37:34.540Z,65.51
2018-04-08T05:40:02.152Z,65.47
2018-04-08T05:42:29.760Z,65.47
2018-04-08T05:44:57.360Z,65.20
2018-04-08T05:47:24.982Z,65.03
2018-04-08T05:49:52.577Z,64.87
2018-04-08T05:52:20.332Z,64.48
2018-04-08T05:54:47.925Z,64.45
2018-04-08T05:57:15.519Z,64.35
2018-04-08T05:59:43.160Z,64.51
2018-04-08T06:02:10.777Z,64.82
2018-04-08T06:04:38.413Z,65.21
2018-04-08T06:07:06.005Z,65.27
2018-04-08T06:09:33.973Z,65.69
2018-04-08T06:12:01.574Z,65.13
2018-04-08T06:14:29.180Z,65.12
2018-04-08T06:16:56.800Z,64.88
2018-04-08T06:19:24.404Z,64.84
2018-04-08T06:21:52.385Z,64.55
2018-04-08T06:24:19.995Z,64.45
2018-04-08T06:26:47.595Z,64.15
2018-04-08T06:29:15.212Z,64.00
2018-04-08T06:31:42.820Z,64.17
2018-04-08T06:34:10.476Z,63.92
2018-04-08T06:36:38.073Z,63.50
2018-04-08T06:39:06.403Z,63.72
2018-04-08T06:41:34.036Z,63.45
2018-04-08T06:44:01.662Z,63.67
2018-04-08T06:46:29.300Z,63.01
2018-04-08T06:48:56.907Z,62.63
2018-04-08T06:51:24.522Z,62.41
2018-04-08T06:53:52.171Z,62.05
2018-04-08T06:56:19.825Z,62.22
2018-04-08T06:58:47.842Z,61.94
2018-04-08T07:01:15.504Z,62.28
2018-04-08T07:03:43.108Z,61.14
2018-04-08T07:06:10.736Z,61.45
2018-04-08T07:08:38.408Z,60.88
2018-04-08T07:11:06.456Z,60.32
2018-04-08T07:13:34.055Z,60.29
2018-04-08T07:16:01.660Z,59.86
2018-04-08T07:18:29.302Z,59.28
2018-04-08T07:20:56.914Z,59.11
2018-04-08T07:23:24.561Z,59.20
2018-04-08T07:25:52.177Z,58.42
2018-04-08T07:28:19.778Z,58.15
2018-04-08T07:30:47.405Z,57.49
2018-04-08T07:33:15.001Z,57.21
2018-04-08T07:35:42.622Z,57.21
2018-04-08T07:38:10.224Z,56.82
2018-04-08T07:40:37.827Z,56.73
2018-04-08T07:43:05.444Z,56.52
2018-04-08T07:45:33.119Z,55.99
2018-04-08T07:48:01.484Z,56.61
2018-04-08T07:50:29.087Z,55.54
2018-04-08T07:52:56.733Z,55.31
2018-04-08T07:55:24.337Z,55.33
2018-04-08T07:57:51.941Z,54.92
2018-04-08T08:00:19.565Z,55.18
2018-04-08T08:02:47.160Z,54.57
2018-04-08T08:05:14.878Z,54.82
2018-04-08T08:07:42.488Z,55.75
2018-04-08T08:10:10.267Z,55.10
2018-04-08T08:12:37.874Z,54.36
2018-04-08T08:15:05.464Z,54.24
2018-04-08T08:17:33.085Z,53.96
2018-04-08T08:20:00.688Z,53.87
2018-04-08T08:22:28.314Z,54.19
2018-04-08T08:24:55.918Z,53.13
2018-04-08T08:27:23.566Z,53.12
2018-04-08T08:29:51.173Z,52.10
2018-04-08T08:32:18.770Z,52.81
2018-04-08T08:34:46.396Z,52.63
2018-04-08T08:37:14.003Z,51.40
2018-04-08T08:39:41.632Z,52.34
2018-04-08T08:42:09.236Z,51.22
2018-04-08T08:44:37.112Z,50.88
2018-04-08T08:47:04.717Z,50.94
2018-04-08T08:49:32.317Z,51.17
2018-04-08T08:52:00.012Z,51.40
2018-04-08T08:54:27.624Z,50.95
2018-04-08T08:56:55.244Z,49.77
2018-04-08T08:59:22.871Z,49.97
2018-04-08T09:01:50.764Z,49.87
2018-04-08T09:04:18.362Z,49.55
2018-04-08T09:06:46.016Z,49.56
2018-04-08T09:09:13.621Z,49.65
2018-04-08T09:11:41.232Z,49.05
2018-04-08T09:14:08.856Z,49.19
2018-04-08T09:16:36.457Z,49.09
2018-04-08T09:22:28.409Z,48.36
2018-04-08T09:24:57.784Z,48.24
2018-04-08T09:27:25.387Z,47.70
2018-04-08T09:29:52.980Z,48.10
2018-04-08T09:32:20.600Z,47.65
2018-04-08T09:34:48.199Z,47.28
2018-04-08T09:37:15.836Z,47.73
2018-04-08T09:39:43.436Z,46.32
2018-04-08T09:42:11.103Z,47.38
2018-04-08T09:44:38.704Z,46.32
2018-04-08T09:47:06.316Z,46.70
2018-04-08T09:49:33.945Z,46.54
2018-04-08T09:52:01.540Z,45.45
2018-04-08T09:54:29.178Z,45.92
2018-04-08T09:56:56.793Z,46.73
2018-04-08T09:59:24.448Z,44.65
2018-04-08T10:01:54.849Z,44.84
2018-04-08T10:04:22.470Z,44.89
2018-04-08T10:06:50.072Z,44.30
2018-04-08T10:09:17.953Z,45.36
2018-04-08T10:11:45.562Z,44.85
2018-04-08T10:14:13.174Z,44.03
2018-04-08T10:16:40.831Z,44.51
2018-04-08T10:19:08.436Z,44.96
2018-04-08T10:21:36.090Z,44.12
2018-04-08T10:24:03.698Z,44.99
2018-04-08T10:26:31.346Z,43.82
2018-04-08T10:28:58.941Z,43.77
2018-04-08T10:31:26.609Z,49.35
2018-04-08T10:33:54.230Z,42.52
2018-04-08T10:36:21.840Z,42.69
2018-04-08T10:38:49.500Z,42.61
2018-04-08T10:41:17.096Z,44.29
2018-04-08T10:43:44.698Z,45.31
2018-04-08T10:46:12.317Z,46.57
2018-04-08T10:48:39.930Z,41.06
2018-04-08T10:51:07.809Z,42.49
2018-04-08T10:53:35.399Z,43.22
2018-04-08T10:56:02.987Z,43.17
2018-04-08T10:58:30.604Z,41.72
2018-04-08T11:00:58.210Z,46.20
2018-04-08T11:03:25.825Z,44.58
2018-04-08T11:05:53.423Z,40.25
2018-04-08T11:08:21.081Z,43.59
2018-04-08T11:10:48.674Z,43.92
2018-04-08T11:13:16.343Z,39.38
2018-04-08T11:15:43.975Z,39.90
2018-04-08T11:18:11.581Z,39.28
2018-04-08T11:20:39.252Z,41.26
2018-04-08T11:23:06.842Z,39.86
2018-04-08T11:25:34.844Z,45.68
2018-04-08T11:28:03.948Z,43.40
2018-04-08T11:30:31.545Z,40.71
2018-04-08T11:32:59.175Z,45.84
2018-04-08T11:35:26.794Z,39.87
2018-04-08T11:37:54.412Z,40.61
2018-04-08T11:40:22.440Z,43.87
2018-04-08T11:42:50.057Z,40.08
2018-04-08T11:45:17.658Z,41.45
2018-04-08T11:47:45.460Z,39.34
2018-04-08T11:50:13.084Z,40.34
2018-04-08T11:52:40.694Z,42.56
2018-04-08T11:55:08.329Z,38.58
2018-04-08T11:57:35.927Z,37.75
2018-04-08T12:00:03.595Z,41.30
2018-04-08T12:02:31.191Z,37.47
2018-04-08T12:04:59.026Z,36.97
2018-04-08T12:07:26.621Z,39.54
2018-04-08T12:09:54.215Z,39.40
2018-04-08T12:12:21.845Z,38.36
2018-04-08T12:14:49.460Z,41.56
2018-04-08T12:17:17.109Z,42.16
2018-04-08T12:19:45.030Z,37.82
2018-04-08T12:22:12.815Z,40.37
2018-04-08T12:24:40.420Z,39.60
2018-04-08T12:27:08.019Z,36.88
2018-04-08T12:29:35.645Z,37.38
2018-04-08T12:32:03.444Z,37.88
2018-04-08T12:34:31.064Z,37.26
2018-04-08T12:36:59.759Z,34.72
2018-04-08T12:39:27.405Z,37.83
2018-04-08T12:41:55.020Z,34.79
2018-04-08T12:44:22.636Z,39.55
2018-04-08T12:46:50.248Z,34.38
2018-04-08T12:49:17.855Z,34.02
2018-04-08T12:51:45.698Z,33.74
2018-04-08T12:54:13.294Z,34.69
2018-04-08T12:56:40.884Z,34.18
2018-04-08T12:59:08.537Z,33.54
2018-04-08T13:56:13.511Z,25.69
2018-04-08T13:58:41.136Z,24.67
2018-04-08T14:01:08.720Z,25.30
2018-04-08T14:03:36.328Z,25.65
2018-04-08T14:06:03.916Z,24.15
2018-04-08T14:08:31.536Z,23.84
2018-04-08T14:10:59.127Z,23.51
2018-04-08T14:13:27.168Z,23.33
2018-04-08T14:15:54.762Z,24.94
2018-04-08T14:18:22.364Z,26.73
2018-04-08T14:20:49.976Z,26.99
2018-04-08T14:23:17.566Z,27.98
2018-04-08T14:25:45.196Z,28.48
2018-04-08T14:28:12.826Z,29.24
2018-04-08T14:30:40.455Z,29.65
2018-04-08T14:33:08.056Z,30.21
2018-04-08T14:35:35.702Z,29.96
2018-04-08T14:38:03.385Z,30.56
2018-04-08T14:40:30.986Z,31.34
2018-04-08T14:42:58.611Z,31.44
2018-04-08T14:45:26.207Z,31.35
2018-04-08T14:47:53.939Z,31.75
2018-04-08T14:50:21.532Z,31.56
2018-04-08T14:52:49.124Z,31.62
2018-04-08T14:55:16.751Z,31.99
2018-04-08T14:57:44.348Z,32.71
2018-04-08T15:00:11.982Z,33.81
2018-04-08T15:02:39.569Z,32.54
2018-04-08T15:05:07.456Z,33.03
2018-04-08T15:07:35.052Z,32.86
2018-04-08T15:10:02.676Z,32.61
2018-04-08T15:12:30.304Z,32.89
2018-04-08T15:14:57.901Z,32.53
2018-04-08T15:17:25.536Z,32.90
2018-04-08T15:19:53.132Z,32.80
2018-04-08T15:22:20.898Z,32.86
2018-04-08T15:24:48.489Z,32.86
2018-04-08T15:27:16.100Z,32.75
2018-04-08T15:29:43.789Z,33.37
2018-04-08T15:32:11.389Z,33.02
2018-04-08T15:34:39.013Z,33.45
2018-04-08T15:37:06.620Z,33.20
2018-04-08T15:39:34.419Z,32.69
2018-04-08T15:42:02.047Z,33.32
2018-04-08T15:44:29.642Z,33.26
2018-04-08T15:46:57.255Z,34.23
2018-04-08T15:49:24.856Z,33.55
2018-04-08T15:51:52.492Z,34.10
2018-04-08T15:54:20.088Z,33.57
2018-04-08T15:56:48.079Z,33.81
2018-04-08T15:59:15.684Z,33.49
2018-04-08T16:01:44.236Z,33.88
2018-04-08T16:04:11.893Z,33.85
2018-04-08T16:06:39.483Z,33.21
2018-04-08T16:09:07.105Z,33.56
2018-04-08T16:11:34.700Z,33.33
2018-04-08T16:14:02.326Z,32.60
2018-04-08T16:16:29.922Z,32.89
2018-04-08T16:18:57.520Z,33.19
2018-04-08T16:21:25.147Z,33.60
2018-04-08T16:23:52.732Z,33.43
2018-04-08T16:26:20.349Z,33.69
2018-04-08T16:28:47.931Z,33.84
2018-04-08T16:31:15.731Z,34.28
2018-04-08T16:33:43.326Z,34.66
2018-04-08T16:36:10.924Z,34.98
2018-04-08T16:38:38.546Z,35.47
2018-04-08T16:41:06.250Z,35.73
2018-04-08T16:43:33.871Z,35.95
2018-04-08T16:46:01.455Z,36.16
2018-04-08T16:48:29.106Z,35.93
2018-04-08T16:50:56.699Z,36.10
2018-04-08T16:53:24.302Z,35.35
2018-04-08T16:55:51.912Z,35.98
2018-04-08T16:58:19.517Z,36.29
2018-04-08T17:00:47.145Z,37.73
2018-04-08T17:03:14.741Z,38.07
2018-04-08T17:05:42.552Z,38.22
2018-04-08T17:08:10.208Z,38.95
2018-04-08T17:10:37.784Z,39.12
2018-04-08T17:13:05.419Z,39.52
2018-04-08T17:15:33.052Z,40.00
2018-04-08T17:18:00.684Z,40.61
2018-04-08T17:20:28.284Z,40.90
2018-04-08T17:22:55.905Z,40.98
2018-04-08T17:25:23.606Z,41.08
2018-04-08T17:27:52.468Z,41.15
2018-04-08T17:30:20.478Z,41.93
2018-04-08T17:32:48.095Z,42.12
2018-04-08T17:35:15.769Z,42.53
2018-04-08T17:37:43.357Z,42.90
2018-04-08T17:40:10.969Z,42.71
2018-04-08T17:42:38.608Z,42.80
2018-04-08T17:45:06.213Z,43.35
2018-04-08T17:47:34.660Z,43.45
2018-04-08T17:50:02.284Z,43.94
2018-04-08T17:52:29.873Z,43.99
2018-04-08T17:54:57.628Z,44.49
2018-04-08T17:57:25.230Z,44.41
2018-04-08T17:59:52.840Z,44.69
2018-04-08T18:02:20.446Z,45.13
2018-04-08T18:04:48.255Z,45.34
2018-04-08T18:07:15.845Z,45.23
2018-04-08T18:09:43.436Z,45.56
2018-04-08T18:12:11.053Z,45.23
2018-04-08T18:14:38.643Z,45.53
2018-04-08T18:17:06.262Z,45.81
2018-04-08T18:19:33.857Z,45.87
2018-04-08T18:22:01.495Z,45.89
2018-04-08T18:24:29.098Z,45.98
2018-04-08T18:26:56.696Z,46.10
2018-04-08T18:29:24.312Z,46.27
2018-04-08T18:31:51.908Z,46.21
2018-04-08T18:34:19.533Z,46.41
2018-04-08T18:36:47.138Z,46.52
2018-04-08T18:39:15.015Z,46.64
2018-04-08T18:41:42.621Z,46.62
2018-04-08T18:44:10.241Z,46.75
2018-04-08T18:46:37.867Z,46.86
2018-04-08T18:49:05.461Z,47.16
2018-04-08T18:51:33.085Z,47.21
2018-04-08T18:54:00.680Z,47.60
2018-04-08T18:56:28.554Z,47.87
2018-04-08T18:58:56.156Z,47.98
2018-04-08T19:01:23.747Z,48.07
2018-04-08T19:03:51.355Z,48.12
2018-04-08T19:06:18.953Z,48.19
2018-04-08T19:08:46.588Z,48.33
2018-04-08T19:11:14.188Z,48.51
2018-04-08T19:13:41.976Z,48.89
2018-04-08T19:16:09.576Z,49.05
2018-04-08T19:18:37.185Z,49.28
2018-04-08T19:21:04.839Z,49.51
2018-04-08T19:23:32.426Z,49.40
2018-04-08T19:26:00.038Z,49.65
2018-04-08T19:28:27.639Z,49.82
2018-04-08T19:30:55.276Z,50.10
2018-04-08T19:33:22.875Z,50.14
2018-04-08T19:35:50.467Z,50.01
2018-04-08T19:38:18.088Z,50.19
2018-04-08T19:40:45.704Z,50.47
2018-04-08T19:43:13.313Z,50.55
2018-04-08T19:45:40.933Z,50.63
2018-04-08T19:48:08.562Z,51.10
2018-04-08T19:50:36.158Z,51.24
2018-04-08T19:53:03.778Z,51.33
2018-04-08T19:55:31.372Z,51.31
2018-04-08T19:57:59.011Z,51.23
2018-04-08T20:00:26.613Z,51.66
2018-04-08T20:02:54.268Z,51.77
2018-04-08T20:05:21.856Z,51.63
2018-04-08T20:07:49.466Z,51.96
2018-04-08T20:10:17.086Z,51.87
2018-04-08T20:12:44.673Z,51.87
2018-04-08T20:15:12.299Z,51.88
2018-04-08T20:17:39.890Z,51.97
2018-04-08T20:20:07.500Z,52.12
2018-04-08T20:22:35.112Z,51.94
2018-04-08T20:25:02.703Z,52.00
2018-04-08T20:27:30.348Z,52.25
2018-04-08T20:29:57.940Z,52.25
2018-04-08T20:32:25.745Z,52.32
2018-04-08T20:34:53.345Z,52.56
2018-04-08T20:37:20.933Z,52.78
2018-04-08T20:39:48.555Z,52.88
2018-04-08T20:42:16.144Z,52.96
2018-04-08T20:44:43.775Z,53.32
2018-04-08T20:47:11.400Z,53.23
2018-04-08T20:49:38.998Z,53.32
2018-04-08T20:52:06.639Z,53.39
2018-04-08T20:54:34.229Z,53.33
2018-04-08T20:57:01.876Z,53.45
2018-04-08T20:59:29.472Z,53.41
2018-04-08T21:01:57.088Z,53.33
2018-04-08T21:04:24.682Z,53.40
2018-04-08T21:06:52.615Z,53.49
2018-04-08T21:09:20.224Z,53.78
2018-04-08T21:11:47.813Z,54.20
2018-04-08T21:14:15.436Z,54.06
2018-04-08T21:16:43.035Z,54.16
2018-04-08T21:19:11.024Z,54.09
2018-04-08T21:21:38.628Z,54.17
2018-04-08T21:24:06.226Z,54.03
2018-04-08T21:26:33.851Z,54.24
2018-04-08T21:29:01.458Z,54.04
2018-04-08T21:31:29.341Z,54.38
2018-04-08T21:33:56.932Z,54.44
2018-04-08T21:36:24.544Z,54.44
2018-04-08T21:38:52.160Z,54.45
2018-04-08T21:41:19.756Z,54.61
2018-04-08T21:43:47.373Z,55.23
2018-04-08T21:46:14.959Z,55.52
2018-04-08T21:48:42.773Z,55.93
2018-04-08T21:51:10.370Z,56.04
2018-04-08T21:53:37.999Z,56.27
2018-04-08T21:56:05.613Z,56.52
2018-04-08T21:58:33.205Z,56.92
2018-04-08T22:01:00.856Z,56.94
2018-04-08T22:03:28.447Z,57.12
2018-04-08T22:05:56.207Z,57.04
2018-04-08T22:08:23.821Z,57.14
2018-04-08T22:10:51.413Z,57.14
2018-04-08T22:13:19.094Z,57.18
2018-04-08T22:15:46.699Z,57.35
2018-04-08T22:18:14.293Z,57.32
2018-04-08T22:20:42.032Z,57.74
2018-04-08T22:23:09.625Z,57.68
2018-04-08T22:25:37.472Z,58.26
2018-04-08T22:28:05.072Z,58.63
2018-04-08T22:30:32.932Z,58.86
2018-04-08T22:33:00.528Z,59.32
2018-04-08T22:35:28.126Z,59.39
2018-04-08T22:37:55.745Z,59.56
2018-04-08T22:40:23.344Z,59.57
2018-04-08T22:42:50.981Z,59.83
2018-04-08T22:45:18.576Z,59.65
2018-04-08T22:47:46.238Z,59.28
2018-04-08T22:50:13.835Z,59.54
2018-04-08T22:52:41.438Z,59.90
2018-04-08T22:55:09.102Z,59.86
2018-04-08T22:57:36.713Z,60.08
2018-04-08T23:00:04.366Z,60.17
2018-04-08T23:02:31.985Z,60.26
2018-04-08T23:04:59.854Z,60.42
2018-04-08T23:07:27.460Z,60.63
2018-04-08T23:09:55.090Z,60.72
2018-04-08T23:12:22.781Z,60.93
2018-04-08T23:14:50.397Z,61.06
2018-04-08T23:17:18.044Z,61.31
2018-04-08T23:19:45.667Z,61.21
2018-04-08T23:22:13.556Z,61.39
2018-04-08T23:24:41.181Z,61.61
2018-04-08T23:27:08.825Z,61.54
2018-04-08T23:29:36.481Z,61.49
2018-04-08T23:32:04.104Z,61.81
2018-04-08T23:34:31.810Z,62.30
2018-04-08T23:36:59.438Z,62.44
2018-04-08T23:39:27.109Z,62.70
2018-04-08T23:41:54.734Z,62.65
2018-04-08T23:44:22.365Z,62.85
2018-04-08T23:46:50.016Z,63.03
2018-04-08T23:49:17.649Z,63.12
2018-04-08T23:51:45.298Z,63.05
2018-04-08T23:54:12.928Z,63.11
2018-04-08T23:56:40.732Z,63.04
2018-04-08T23:59:08.357Z,63.33
